Time;durP1;ratioP1;P1;durP2;ratioP2;P2;SDS_P1;SDS_P2;PMS_P1;PMS_P2;Temp;Humidity;BMP_temperature;BMP_pressure;BME280_temperature;BME280_humidity;BME280_pressure;Samples;Min_cycle;Max_cycle;Signal;HPM_P1;HPM_P2
2023/08/12 00:01:12;;;;;;;8.60;3.50;;;16.30;99.90;;;;;;4926685;29;20189;-82
2023/08/12 00:03:38;;;;;;;9.45;4.20;;;16.30;99.90;;;;;;4926650;29;20190;-82
2023/08/12 00:06:05;;;;;;;13.85;3.95;;;16.20;99.90;;;;;;4926126;29;20211;-82
2023/08/12 00:08:31;;;;;;;9.13;3.72;;;16.20;99.90;;;;;;4920395;29;20274;-82
2023/08/12 00:10:56;;;;;;;7.40;3.67;;;16.20;99.90;;;;;;4919403;29;20226;-82
2023/08/12 00:13:25;;;;;;;15.85;3.88;;;16.20;99.90;;;;;;4919006;29;20179;-82
2023/08/12 00:15:52;;;;;;;13.50;3.45;;;16.10;99.90;;;;;;4919252;29;20198;-82
2023/08/12 00:18:17;;;;;;;13.30;3.83;;;16.10;99.90;;;;;;4918533;29;20283;-82
2023/08/12 00:20:43;;;;;;;10.80;3.67;;;16.10;99.90;;;;;;4918544;29;20222;-82
2023/08/12 00:23:08;;;;;;;5.32;3.45;;;16.20;99.90;;;;;;4919167;29;20179;-81
2023/08/12 00:25:34;;;;;;;7.63;3.30;;;16.20;99.90;;;;;;4919675;29;20178;-81
2023/08/12 00:28:00;;;;;;;9.30;3.63;;;16.20;99.90;;;;;;4920180;29;20183;-81
2023/08/12 00:30:28;;;;;;;11.95;4.10;;;16.20;99.90;;;;;;4919395;29;20229;-81
2023/08/12 00:32:54;;;;;;;9.40;3.95;;;16.10;99.90;;;;;;4920297;29;20207;-81
2023/08/12 00:35:19;;;;;;;12.95;4.45;;;16.00;99.90;;;;;;4919131;29;20206;-81
2023/08/12 00:37:45;;;;;;;14.27;4.30;;;16.00;99.90;;;;;;4918981;29;20199;-81
2023/08/12 00:40:12;;;;;;;11.77;4.10;;;16.00;99.90;;;;;;4919019;29;20175;-81
2023/08/12 00:42:41;;;;;;;6.93;3.58;;;16.00;99.90;;;;;;4918993;29;20179;-81
2023/08/12 00:45:12;;;;;;;6.65;4.35;;;15.90;99.90;;;;;;4919741;29;20190;-81
2023/08/12 00:47:38;;;;;;;15.02;4.35;;;15.90;99.90;;;;;;4919638;29;20206;-81
2023/08/12 00:50:05;;;;;;;5.70;3.70;;;15.90;99.90;;;;;;4919608;29;20526;-81
2023/08/12 00:52:30;;;;;;;5.93;4.15;;;15.90;99.90;;;;;;4918425;29;20210;-81
2023/08/12 00:54:56;;;;;;;10.52;3.50;;;15.90;99.90;;;;;;4919330;29;20269;-81
2023/08/12 00:57:22;;;;;;;9.63;4.30;;;15.90;99.90;;;;;;4918713;29;20626;-81
2023/08/12 00:59:49;;;;;;;6.75;3.65;;;16.00;99.90;;;;;;4918879;29;20642;-81
2023/08/12 07:55:04;;;;;;;6.53;4.70;;;20.90;99.90;;;;;;1604635;23;20527;-82
2023/08/12 07:57:31;;;;;;;5.00;4.53;;;21.20;99.90;;;;;;4933993;29;20229;-87
2023/08/12 07:59:57;;;;;;;5.35;4.20;;;21.50;99.90;;;;;;4936201;29;20193;-87
2023/08/12 08:02:22;;;;;;;4.95;4.32;;;21.60;99.90;;;;;;4935727;29;20178;-86
2023/08/12 08:04:49;;;;;;;6.32;4.65;;;21.70;99.90;;;;;;4936029;29;20178;-86
2023/08/12 08:07:16;;;;;;;7.60;4.35;;;21.80;99.90;;;;;;4935621;29;20198;-86
2023/08/12 08:09:42;;;;;;;5.85;4.35;;;22.00;99.90;;;;;;4928740;29;20214;-87
2023/08/12 08:12:10;;;;;;;8.90;5.07;;;22.30;99.90;;;;;;4927411;29;20206;-87
2023/08/12 08:14:39;;;;;;;4.30;3.90;;;22.50;99.90;;;;;;4935383;29;20515;-87
2023/08/12 08:17:05;;;;;;;8.75;4.72;;;22.80;99.90;;;;;;4921139;29;20543;-87
2023/08/12 08:19:30;;;;;;;8.05;4.20;;;23.10;99.90;;;;;;4936016;29;20177;-87
2023/08/12 08:21:57;;;;;;;7.00;4.68;;;23.10;99.90;;;;;;4935526;29;20183;-87
2023/08/12 08:24:23;;;;;;;4.85;4.22;;;23.20;99.90;;;;;;4935809;29;20189;-86
2023/08/12 08:26:51;;;;;;;7.57;5.15;;;23.30;99.90;;;;;;4935460;29;20206;-87
2023/08/12 08:29:24;;;;;;;5.80;4.72;;;23.40;99.90;;;;;;4935313;29;20183;-87
2023/08/12 08:31:50;;;;;;;5.57;4.70;;;23.40;99.90;;;;;;4936579;29;20209;-87
2023/08/12 08:34:15;;;;;;;6.13;4.65;;;23.50;99.90;;;;;;4936702;29;20253;-88
2023/08/12 08:36:41;;;;;;;5.30;4.85;;;23.60;99.90;;;;;;4935906;29;20280;-88
2023/08/12 08:39:10;;;;;;;5.13;4.63;;;23.40;99.90;;;;;;4935173;29;20183;-88
2023/08/12 08:41:42;;;;;;;8.07;4.82;;;23.30;99.90;;;;;;4935619;29;20189;-88
2023/08/12 08:44:16;;;;;;;5.35;4.20;;;23.20;99.90;;;;;;4936142;29;20190;-88
2023/08/12 08:46:43;;;;;;;5.00;4.60;;;23.00;99.90;;;;;;4935841;29;20266;-88
2023/08/12 08:49:10;;;;;;;5.97;4.28;;;22.90;99.90;;;;;;4935311;29;20185;-88
2023/08/12 08:51:36;;;;;;;7.00;4.68;;;22.90;99.90;;;;;;4935379;29;20222;-88
2023/08/12 08:54:08;;;;;;;5.20;4.53;;;23.10;99.90;;;;;;4935486;29;20186;-89
2023/08/12 08:56:37;;;;;;;7.13;4.10;;;23.20;99.90;;;;;;4935325;29;20279;-88
2023/08/12 08:59:06;;;;;;;4.22;3.88;;;23.40;99.90;;;;;;4935237;29;20182;-88
2023/08/12 09:01:31;;;;;;;4.70;4.28;;;23.50;99.90;;;;;;4935674;29;20607;-87
2023/08/12 09:03:58;;;;;;;5.97;4.28;;;23.50;99.90;;;;;;4935614;29;20209;-87
2023/08/12 09:06:25;;;;;;;4.65;4.28;;;23.70;99.90;;;;;;4935319;29;20205;-87
2023/08/12 09:08:52;;;;;;;4.30;3.90;;;23.70;99.90;;;;;;4935163;29;20225;-87
2023/08/12 09:11:19;;;;;;;4.22;3.92;;;23.80;99.90;;;;;;4932734;29;20226;-87
2023/08/12 09:13:49;;;;;;;4.68;3.80;;;23.70;99.90;;;;;;4916479;29;20171;-87
2023/08/12 09:16:17;;;;;;;6.18;4.25;;;23.70;99.90;;;;;;4916534;29;20198;-87
2023/08/12 09:18:44;;;;;;;7.43;4.15;;;23.80;99.90;;;;;;4916679;29;20179;-87
2023/08/12 09:21:12;;;;;;;5.85;4.30;;;24.00;99.90;;;;;;4916675;29;20195;-87
2023/08/12 09:23:42;;;;;;;7.63;4.20;;;24.20;99.90;;;;;;4917295;29;20190;-88
2023/08/12 09:26:14;;;;;;;6.25;4.20;;;24.30;99.90;;;;;;4916460;29;20234;-88
2023/08/12 09:28:41;;;;;;;5.15;4.22;;;24.40;99.90;;;;;;4916102;29;20212;-91
2023/08/12 09:31:07;;;;;;;6.63;4.13;;;24.30;99.90;;;;;;4915960;29;20183;-89
2023/08/12 09:33:35;;;;;;;5.35;3.88;;;24.60;99.90;;;;;;4916187;29;20214;-89
2023/08/12 09:36:01;;;;;;;5.88;4.30;;;24.80;99.90;;;;;;4916239;29;20207;-89
2023/08/12 09:38:26;;;;;;;5.07;4.68;;;24.90;99.90;;;;;;4916725;29;20182;-89
2023/08/12 09:40:56;;;;;;;5.88;4.63;;;24.90;99.90;;;;;;4917711;29;20191;-89
2023/08/12 09:43:27;;;;;;;4.57;4.07;;;25.00;99.90;;;;;;4920397;29;20234;-89
2023/08/12 09:45:56;;;;;;;5.00;4.20;;;25.20;99.90;;;;;;4919454;29;20206;-90
2023/08/12 09:48:22;;;;;;;7.47;3.88;;;25.30;99.90;;;;;;4919593;29;20193;-89
2023/08/12 09:50:47;;;;;;;6.05;4.25;;;25.30;99.90;;;;;;4919360;29;20187;-89
2023/08/12 09:53:16;;;;;;;4.22;3.83;;;25.40;99.90;;;;;;4919392;29;20238;-89
2023/08/12 09:55:47;;;;;;;7.40;4.55;;;25.70;99.90;;;;;;4919276;29;20210;-88
2023/08/12 09:58:18;;;;;;;6.03;4.10;;;26.10;99.90;;;;;;4919818;29;20187;-89
2023/08/12 10:00:45;;;;;;;6.57;4.35;;;26.30;99.90;;;;;;4919931;29;20234;-89
2023/08/12 10:03:14;;;;;;;4.50;4.10;;;26.00;99.90;;;;;;4919546;29;20187;-89
2023/08/12 10:05:40;;;;;;;6.15;4.25;;;25.90;99.90;;;;;;4919056;29;20218;-89
2023/08/12 10:08:07;;;;;;;4.53;4.20;;;26.00;99.90;;;;;;4919742;29;20185;-88
2023/08/12 10:10:35;;;;;;;6.03;4.47;;;26.00;99.90;;;;;;4919546;29;20231;-88
2023/08/12 10:13:01;;;;;;;5.00;4.60;;;26.00;99.90;;;;;;4919280;29;20206;-88
2023/08/12 10:15:30;;;;;;;80.93;53.83;;;26.00;99.90;;;;;;4919749;29;20658;-89
2023/08/12 10:18:16;;;;;;;;;;;;;;;;;;;;;
2023/08/12 10:21:14;;;;;;;9.07;5.15;;;26.10;99.90;;;;;;4922726;29;20266;-88
2023/08/12 10:23:52;;;;;;;10.57;6.30;;;26.10;99.90;;;;;;4919069;29;20191;-91
2023/08/12 12:34:01;;;;;;;5.20;4.40;;;26.10;99.90;;;;;;5351241;23;20313;-80
2023/08/12 12:36:28;;;;;;;6.40;4.47;;;25.90;99.90;;;;;;4946494;29;20198;-81
2023/08/12 12:38:56;;;;;;;11.45;6.40;;;25.70;99.90;;;;;;4944087;29;20233;-81
2023/08/12 12:41:21;;;;;;;10.50;5.88;;;25.40;99.90;;;;;;4942700;29;20265;-81
2023/08/12 12:43:49;;;;;;;14.77;6.35;;;25.10;99.90;;;;;;4942169;29;20205;-81
2023/08/12 12:46:30;;;;;;;22.25;8.82;;;24.60;99.90;;;;;;4941238;29;20212;-81
2023/08/12 12:49:01;;;;;;;20.70;9.25;;;24.00;99.90;;;;;;4941156;29;20177;-82
2023/08/12 12:51:28;;;;;;;15.50;7.55;;;23.40;99.90;;;;;;4942836;29;20246;-81
2023/08/12 12:53:54;;;;;;;17.73;7.82;;;23.00;99.90;;;;;;4943537;29;20645;-81
2023/08/12 12:56:21;;;;;;;8.57;5.13;;;22.60;99.90;;;;;;4942406;29;20198;-81
2023/08/12 12:58:47;;;;;;;9.55;4.70;;;22.30;99.90;;;;;;4942146;29;20217;-81
2023/08/12 13:01:12;;;;;;;6.82;3.75;;;22.00;99.90;;;;;;4942415;29;20225;-81
2023/08/12 13:03:38;;;;;;;5.07;3.13;;;21.80;99.90;;;;;;4943047;29;20641;-79
2023/08/12 13:06:03;;;;;;;5.28;2.70;;;21.50;99.90;;;;;;4943941;29;20653;-79
2023/08/12 13:08:31;;;;;;;8.63;2.70;;;21.40;99.90;;;;;;4943913;29;20308;-79
2023/08/12 13:10:57;;;;;;;7.97;2.97;;;21.20;99.90;;;;;;4943555;29;20205;-79
2023/08/12 13:13:26;;;;;;;7.38;2.72;;;21.00;99.90;;;;;;4944207;29;20214;-80
